CheckWX is a tool to help pilots better visualize weather data.  It is not intended as a substitute for an official pre-flight weather briefing.

18:03:11 UTC

K9MN METAR
Rochester
Rochester, Minnesota, USA
Current

8 mins ago

K9MN 241755Z AUTO 20009G18KT 170V250 10SM CLR 17/03 A2987 RMK AO1 T01740025 10175 20080
Observed
Apr-24 @ 17:55 UTC
Wind
  • 200° at 9 KTS
  • Gusting to 18 KTS
Visibility
10 SM
Flight Rules
VFR
Cloud Levels
  • Clear skies
Temperature
17°C / 63°F
Dewpoint
C / 37°F
Humidity
39%
Altimeter
29.87" Hg
Pressure
1011.52 hPa
Previous

27 mins ago

K9MN 241736Z AUTO 20009G19KT 080V260 10SM CLR 17/03 A2987 RMK AO1 T01730025
Observed
Apr-24 @ 17:36 UTC
Wind
  • 200° at 9 KTS
  • Gusting to 19 KTS
Visibility
10 SM
Flight Rules
VFR
Cloud Levels
  • Clear skies
Temperature
17°C / 63°F
Dewpoint
C / 37°F
Humidity
39%
Altimeter
29.87" Hg
Pressure
1011.52 hPa
Previous

48 mins ago

K9MN 241715Z AUTO 20013G21KT 10SM CLR 17/03 A2989 RMK AO1 T01740030
Observed
Apr-24 @ 17:15 UTC
Wind
  • 200° at 13 KTS
  • Gusting to 21 KTS
Visibility
10 SM
Flight Rules
VFR
Cloud Levels
  • Clear skies
Temperature
17°C / 63°F
Dewpoint
C / 37°F
Humidity
39%
Altimeter
29.89" Hg
Pressure
1012.22 hPa